Observations for LIVERPOOL AIRPORT, United Kingdom (EGGP)

EGGP 182050Z 03004KT 340V070 CAVOK 06/01 Q1029  
EGGP 182020Z 07009KT CAVOK 07/02 Q1029  
EGGP 181950Z 08008KT CAVOK 07/02 Q1029  
EGGP 181920Z 09012KT CAVOK 07/03 Q1029  
EGGP 181850Z 08011KT CAVOK 07/03 Q1029  
EGGP 181820Z 08013KT CAVOK 08/04 Q1029  
EGGP 181750Z 07015KT CAVOK 09/05 Q1029  
EGGP 181720Z 07015KT CAVOK 09/05 Q1029  
EGGP 181650Z 07014KT CAVOK 09/05 Q1029  
EGGP 181620Z 07012KT CAVOK 09/04 Q1029  
EGGP 181550Z 08012KT CAVOK 09/04 Q1029  
EGGP 181520Z 08013KT CAVOK 10/05 Q1029  
EGGP 181450Z 07011KT CAVOK 10/04 Q1029  
EGGP 181420Z 07012KT CAVOK 11/05 Q1029  
EGGP 181350Z 07014KT CAVOK 11/05 Q1029  
EGGP 181320Z 07014KT CAVOK 11/05 Q1029  
EGGP 181250Z 08014KT 9999 7000S NSC 11/05 Q1029 
EGGP 181220Z 09013KT 9999 7000S NSC 11/05 Q1030 
EGGP 181150Z 08013KT 9999 7000S NSC 10/05 Q1030 
EGGP 181120Z 07013KT 9999 7000S NSC 09/05 Q1030 
EGGP 181050Z 08012KT 9999 7000S NSC 10/06 Q1030 
EGGP 181020Z 09006KT 9999 7000S NSC 08/05 Q1031 
EGGP 180950Z 09007KT 9999 7000S NSC 08/05 Q1031 
EGGP 180920Z 09005KT 9999 7000S NSC 06/05 Q1031 
EGGP 180850Z 08006KT 9000 NSC 05/03 Q1031   
EGGP 180820Z 08005KT 9000 NSC 03/01 Q1031   
EGGP 180750Z 08006KT 9000 NSC 04/03 Q1030   
EGGP 180720Z 09004KT 9000 NSC 05/03 Q1030   
EGGP 180650Z 07007KT CAVOK 04/03 Q1030  
EGGP 180620Z 10008KT CAVOK 04/03 Q1030  
EGGP 180550Z 09008KT CAVOK 03/01 Q1030  
EGGP 180450Z 09006KT CAVOK 05/03 Q1029  
EGGP 180420Z 08006KT CAVOK 04/02 Q1029  
EGGP 180350Z 08008KT CAVOK 04/02 Q1029  
EGGP 180250Z 08010KT CAVOK 05/03 Q1029  
EGGP 180220Z 08010KT CAVOK 05/03 Q1029  
EGGP 180150Z 09012KT CAVOK 06/03 Q1029  
EGGP 180120Z 10012KT CAVOK 06/04 Q1029  
EGGP 180050Z 10012KT CAVOK 07/04 Q1029  
EGGP 180020Z 10015KT CAVOK 07/04 Q1028  
EGGP 172350Z 10014KT CAVOK 07/04 Q1028  
EGGP 172320Z 10015KT CAVOK 06/04 Q1028  
EGGP 172250Z 11013KT CAVOK 07/04 Q1028  
EGGP 172220Z 10013KT CAVOK 07/04 Q1028  
EGGP 172150Z 10013KT CAVOK 07/04 Q1029  
EGGP 172120Z 09010KT CAVOK 06/04 Q1028  
EGGP 172050Z 09013KT CAVOK 07/05 Q1028  
EGGP 172020Z 10012KT CAVOK 08/05 Q1028